createdAt,value
2018-09-25T00:00:20.333Z,1.93
2018-09-25T00:02:54.592Z,2.20
2018-09-25T00:05:28.936Z,2.17
2018-09-25T00:08:03.275Z,1.90
2018-09-25T00:10:37.960Z,2.50
2018-09-25T00:13:12.283Z,1.87
2018-09-25T00:15:46.688Z,2.13
2018-09-25T00:18:21.074Z,2.83
2018-09-25T00:20:55.362Z,2.77
2018-09-25T00:23:29.843Z,2.10
2018-09-25T00:26:04.101Z,3.10
2018-09-25T00:28:38.604Z,3.33
2018-09-25T00:31:13.007Z,2.83
2018-09-25T00:33:47.383Z,3.23
2018-09-25T00:36:22.080Z,4.10
2018-09-25T00:38:56.443Z,2.70
2018-09-25T00:41:30.871Z,3.07
2018-09-25T00:44:05.349Z,3.30
2018-09-25T00:46:39.851Z,3.37
2018-09-25T00:49:14.173Z,2.57
2018-09-25T00:51:48.482Z,2.80
2018-09-25T00:54:22.834Z,2.60
2018-09-25T00:56:57.237Z,2.37
2018-09-25T00:59:31.970Z,2.13
2018-09-25T01:02:06.286Z,2.10
2018-09-25T01:04:40.624Z,2.83
2018-09-25T01:07:14.888Z,4.97
2018-09-25T01:09:49.314Z,4.40
2018-09-25T01:12:23.704Z,4.20
2018-09-25T01:14:57.956Z,7.47
2018-09-25T01:17:32.267Z,6.27
2018-09-25T01:20:06.585Z,21.90
2018-09-25T01:22:41.006Z,14.93
2018-09-25T01:25:15.452Z,7.53
2018-09-25T01:27:49.807Z,4.13
2018-09-25T01:30:24.089Z,4.13
2018-09-25T01:32:58.470Z,4.10
2018-09-25T01:35:32.870Z,4.70
2018-09-25T01:38:07.481Z,5.10
2018-09-25T01:40:41.814Z,5.80
2018-09-25T01:43:16.180Z,6.33
2018-09-25T01:45:50.790Z,11.23
2018-09-25T01:48:25.349Z,10.67
2018-09-25T01:50:59.664Z,7.00
2018-09-25T01:53:34.022Z,8.13
2018-09-25T01:56:08.331Z,8.17
2018-09-25T01:58:42.857Z,5.80
2018-09-25T02:01:17.259Z,5.57
2018-09-25T02:03:51.559Z,5.47
2018-09-25T02:06:25.862Z,5.43
2018-09-25T02:09:00.562Z,5.43
2018-09-25T02:11:34.804Z,5.70
2018-09-25T02:14:09.145Z,6.40
2018-09-25T02:16:43.710Z,5.87
2018-09-25T02:19:18.016Z,6.00
2018-09-25T02:21:52.357Z,5.03
2018-09-25T02:24:26.756Z,5.40
2018-09-25T02:27:01.124Z,5.90
2018-09-25T02:29:35.538Z,6.60
2018-09-25T02:32:09.906Z,6.27
2018-09-25T02:34:44.450Z,6.10
2018-09-25T02:37:18.778Z,6.23
2018-09-25T02:39:53.232Z,6.20
2018-09-25T02:42:27.705Z,7.93
2018-09-25T02:45:01.905Z,9.20
2018-09-25T02:47:36.297Z,7.30
2018-09-25T02:50:10.666Z,7.63
2018-09-25T02:52:45.249Z,7.50
2018-09-25T02:55:19.676Z,7.50
2018-09-25T02:57:54.126Z,7.60
2018-09-25T03:00:28.522Z,6.57
2018-09-25T03:03:02.979Z,6.50
2018-09-25T03:05:37.284Z,6.47
2018-09-25T03:08:12.410Z,6.07
2018-09-25T03:10:46.713Z,6.10
2018-09-25T03:13:21.182Z,6.17
2018-09-25T03:15:55.485Z,6.10
2018-09-25T03:18:29.831Z,6.13
2018-09-25T03:21:04.330Z,6.10
2018-09-25T03:23:38.932Z,7.30
2018-09-25T03:26:13.556Z,6.57
2018-09-25T03:28:48.009Z,6.60
2018-09-25T03:31:22.341Z,7.00
2018-09-25T03:33:56.680Z,7.00
2018-09-25T03:36:31.069Z,6.97
2018-09-25T03:39:05.381Z,7.20
2018-09-25T03:41:39.823Z,7.10
2018-09-25T03:44:14.160Z,7.33
2018-09-25T03:46:48.575Z,6.70
2018-09-25T03:49:22.993Z,7.47
2018-09-25T03:51:57.494Z,8.27
2018-09-25T03:54:31.929Z,7.17
2018-09-25T03:57:06.397Z,7.10
2018-09-25T03:59:40.912Z,8.13
2018-09-25T04:02:15.479Z,9.00
2018-09-25T04:04:49.728Z,8.03
2018-09-25T04:07:24.208Z,8.13
2018-09-25T04:09:58.711Z,8.53
2018-09-25T04:12:33.081Z,9.17
2018-09-25T04:15:07.374Z,10.13
2018-09-25T04:17:41.697Z,8.40
2018-09-25T04:20:16.208Z,8.27
2018-09-25T04:22:50.613Z,7.57
2018-09-25T04:25:24.928Z,8.20
2018-09-25T04:27:59.357Z,7.87
2018-09-25T04:30:34.299Z,7.77
2018-09-25T04:33:08.730Z,7.83
2018-09-25T04:35:43.218Z,7.23
2018-09-25T04:38:17.452Z,7.07
2018-09-25T04:40:51.984Z,7.10
2018-09-25T04:43:26.383Z,7.33
2018-09-25T04:46:00.833Z,8.40
2018-09-25T04:48:35.231Z,8.10
2018-09-25T04:51:09.669Z,8.97
2018-09-25T04:53:44.088Z,9.60
2018-09-25T04:56:18.405Z,10.20
2018-09-25T04:58:52.827Z,10.63
2018-09-25T05:01:27.210Z,11.37
2018-09-25T05:04:01.736Z,11.30
2018-09-25T05:06:36.241Z,10.63
2018-09-25T05:09:12.658Z,10.40
2018-09-25T05:11:47.084Z,10.63
2018-09-25T05:14:21.374Z,10.93
2018-09-25T05:16:55.695Z,12.47
2018-09-25T05:19:30.008Z,12.50
2018-09-25T05:22:04.531Z,11.53
2018-09-25T05:24:38.928Z,12.43
2018-09-25T05:27:13.668Z,12.17
2018-09-25T05:29:48.152Z,12.57
2018-09-25T05:32:22.692Z,12.27
2018-09-25T05:34:57.003Z,12.13
2018-09-25T05:37:31.365Z,11.20
2018-09-25T05:40:05.774Z,11.60
2018-09-25T05:42:40.254Z,11.27
2018-09-25T05:45:15.452Z,11.83
2018-09-25T05:47:49.950Z,11.77
2018-09-25T05:50:24.437Z,13.10
2018-09-25T05:52:58.889Z,10.50
2018-09-25T05:55:33.404Z,11.00
2018-09-25T05:58:07.996Z,10.57
2018-09-25T06:00:42.395Z,9.90
2018-09-25T06:03:16.845Z,10.03
2018-09-25T06:05:51.266Z,9.83
2018-09-25T06:08:25.599Z,9.40
2018-09-25T06:10:59.818Z,11.07
2018-09-25T06:13:34.268Z,10.97
2018-09-25T06:16:08.804Z,11.20
2018-09-25T06:18:43.170Z,10.10
2018-09-25T06:21:17.899Z,10.40
2018-09-25T06:23:52.618Z,11.03
2018-09-25T06:26:26.825Z,10.70
2018-09-25T06:29:01.410Z,10.97
2018-09-25T06:31:35.843Z,10.23
2018-09-25T06:34:10.214Z,11.43
2018-09-25T06:36:45.024Z,11.97
2018-09-25T06:39:19.905Z,13.00
2018-09-25T06:41:54.620Z,12.50
2018-09-25T06:44:28.977Z,12.27
2018-09-25T06:47:03.480Z,11.97
2018-09-25T06:49:38.427Z,12.10
2018-09-25T06:52:12.788Z,12.57
2018-09-25T06:54:47.533Z,12.57
2018-09-25T06:57:22.129Z,13.03
2018-09-25T06:59:56.486Z,12.97
2018-09-25T07:02:30.953Z,14.23
2018-09-25T07:05:05.344Z,12.97
2018-09-25T07:07:39.845Z,11.67
2018-09-25T07:10:14.759Z,11.33
2018-09-25T07:12:49.542Z,12.77
2018-09-25T07:15:24.096Z,12.13
2018-09-25T07:17:58.715Z,12.70
2018-09-25T07:20:33.142Z,12.07
2018-09-25T07:23:07.460Z,11.33
2018-09-25T07:25:41.856Z,10.90
2018-09-25T07:28:16.508Z,11.63
2018-09-25T07:30:50.850Z,11.77
2018-09-25T07:33:25.435Z,12.00
2018-09-25T07:35:59.775Z,12.63
2018-09-25T07:38:34.107Z,12.00
2018-09-25T07:41:08.445Z,11.77
2018-09-25T07:43:42.866Z,11.83
2018-09-25T07:46:17.161Z,11.73
2018-09-25T07:48:51.379Z,10.80
2018-09-25T07:51:26.076Z,11.43
2018-09-25T07:54:00.407Z,11.77
2018-09-25T07:56:34.818Z,11.40
2018-09-25T07:59:09.310Z,10.70
2018-09-25T08:01:43.818Z,10.30
2018-09-25T08:04:18.153Z,10.57
2018-09-25T08:06:52.548Z,10.77
2018-09-25T08:09:26.979Z,10.60
2018-09-25T08:12:01.423Z,9.80
2018-09-25T08:14:35.955Z,10.33
2018-09-25T08:17:10.263Z,10.10
2018-09-25T08:19:45.449Z,10.87
2018-09-25T08:22:20.011Z,9.80
2018-09-25T08:24:54.751Z,8.80
2018-09-25T08:27:29.169Z,9.03
2018-09-25T08:30:03.658Z,8.83
2018-09-25T08:32:37.976Z,7.30
2018-09-25T08:35:12.312Z,8.50
2018-09-25T08:37:46.858Z,8.00
2018-09-25T08:40:21.295Z,7.57
2018-09-25T08:42:55.773Z,6.73
2018-09-25T08:45:30.784Z,6.30
2018-09-25T08:48:05.307Z,6.20
2018-09-25T08:50:39.942Z,6.13
2018-09-25T08:53:14.261Z,5.53
2018-09-25T08:55:48.701Z,6.33
2018-09-25T08:58:25.505Z,6.20
2018-09-25T09:00:59.939Z,5.83
2018-09-25T09:03:34.583Z,7.13
2018-09-25T09:06:08.912Z,6.30
2018-09-25T09:08:43.431Z,4.23
2018-09-25T09:11:18.122Z,4.33
2018-09-25T09:13:52.612Z,4.73
2018-09-25T09:16:27.112Z,4.10
2018-09-25T09:19:01.696Z,3.90
2018-09-25T09:21:36.287Z,4.20
2018-09-25T09:24:10.666Z,4.30
2018-09-25T09:26:44.860Z,3.97
2018-09-25T09:29:19.221Z,3.80
2018-09-25T09:31:53.677Z,3.57
2018-09-25T09:34:28.291Z,3.73
2018-09-25T09:37:03.054Z,3.93
2018-09-25T09:39:37.481Z,3.17
2018-09-25T09:42:12.303Z,3.77
2018-09-25T09:44:46.766Z,3.20
2018-09-25T09:47:20.915Z,4.07
2018-09-25T09:49:56.715Z,3.17
2018-09-25T09:52:30.974Z,3.67
2018-09-25T09:55:05.196Z,3.40
2018-09-25T09:57:39.643Z,25.23
2018-09-25T10:00:14.719Z,3.57
2018-09-25T10:02:49.224Z,2.70
2018-09-25T10:05:24.173Z,2.77
2018-09-25T10:07:58.387Z,2.20
2018-09-25T10:10:32.840Z,6.00
2018-09-25T10:13:07.105Z,2.73
2018-09-25T10:15:41.502Z,2.63
2018-09-25T10:18:15.825Z,2.30
2018-09-25T10:20:50.371Z,2.40
2018-09-25T10:23:24.831Z,2.47
2018-09-25T10:25:59.405Z,2.47
2018-09-25T10:28:33.792Z,3.30
2018-09-25T10:31:08.357Z,3.43
2018-09-25T10:33:42.894Z,2.43
2018-09-25T10:36:17.289Z,2.67
2018-09-25T10:38:51.704Z,2.10
2018-09-25T10:41:26.289Z,1.77
2018-09-25T10:44:00.687Z,2.57
2018-09-25T10:46:34.866Z,2.07
2018-09-25T10:49:09.395Z,2.00
2018-09-25T10:51:43.740Z,2.13
2018-09-25T10:54:18.031Z,1.73
2018-09-25T10:56:52.553Z,1.63
2018-09-25T10:59:26.866Z,1.97
2018-09-25T11:02:01.422Z,1.90
2018-09-25T11:04:35.983Z,1.40
2018-09-25T11:07:10.483Z,1.80
2018-09-25T11:09:45.172Z,1.43
2018-09-25T11:12:19.901Z,1.40
2018-09-25T11:14:54.405Z,1.27
2018-09-25T11:17:28.884Z,1.43
2018-09-25T11:20:03.328Z,2.00
2018-09-25T11:22:38.056Z,1.50
2018-09-25T11:25:12.957Z,1.23
2018-09-25T11:27:47.391Z,1.47
2018-09-25T11:30:21.832Z,1.33
2018-09-25T11:32:56.823Z,1.42
2018-09-25T11:35:32.037Z,3.20
2018-09-25T11:38:06.567Z,1.60
2018-09-25T11:40:40.982Z,1.30
2018-09-25T11:43:15.576Z,1.50
2018-09-25T11:45:50.115Z,1.20
2018-09-25T11:48:24.653Z,1.50
2018-09-25T11:50:59.665Z,1.50
2018-09-25T11:53:34.294Z,1.27
2018-09-25T11:56:08.674Z,1.97
2018-09-25T11:58:43.095Z,1.83
2018-09-25T12:01:17.577Z,1.20
2018-09-25T12:03:52.447Z,1.50
2018-09-25T12:06:27.408Z,1.82
2018-09-25T12:09:02.181Z,2.00
2018-09-25T12:11:37.180Z,1.70
2018-09-25T12:14:12.349Z,1.62
2018-09-25T12:16:48.661Z,1.57
2018-09-25T12:19:23.802Z,1.50
2018-09-25T12:21:58.915Z,1.65
2018-09-25T12:24:33.695Z,1.40
2018-09-25T12:27:08.781Z,1.65
2018-09-25T12:29:43.656Z,3.25
2018-09-25T12:32:18.456Z,1.90
2018-09-25T12:34:53.379Z,1.57
2018-09-25T12:37:28.415Z,1.50
2018-09-25T12:40:03.149Z,1.70
2018-09-25T12:42:38.173Z,1.50
2018-09-25T12:45:13.106Z,1.30
2018-09-25T12:47:48.107Z,1.50
2018-09-25T12:50:23.164Z,1.85
2018-09-25T12:52:58.114Z,1.65
2018-09-25T12:55:33.120Z,1.52
2018-09-25T12:58:08.217Z,1.47
2018-09-25T13:00:43.316Z,1.77
2018-09-25T13:03:18.131Z,1.47
2018-09-25T13:05:53.157Z,1.12
2018-09-25T13:08:28.234Z,1.45
2018-09-25T13:11:03.078Z,1.30
2018-09-25T13:13:37.957Z,1.57
2018-09-25T13:16:13.748Z,1.32
2018-09-25T13:18:48.573Z,1.27
2018-09-25T13:21:23.496Z,1.35
2018-09-25T13:23:58.514Z,1.70
2018-09-25T13:26:33.735Z,1.37
2018-09-25T13:29:08.616Z,4.70
2018-09-25T13:31:43.420Z,1.70
2018-09-25T13:34:18.825Z,1.52
2018-09-25T13:36:53.709Z,1.65
2018-09-25T13:39:28.820Z,1.15
2018-09-25T13:42:12.248Z,1.10
2018-09-25T13:44:47.271Z,1.20
2018-09-25T13:47:22.316Z,1.62
2018-09-25T13:49:57.323Z,1.50
2018-09-25T13:52:32.400Z,1.55
2018-09-25T13:55:07.529Z,1.27
2018-09-25T13:57:42.612Z,2.10
2018-09-25T14:00:18.003Z,1.50
2018-09-25T14:02:53.026Z,1.40
2018-09-25T14:05:28.077Z,1.62
2018-09-25T14:08:03.184Z,1.40
2018-09-25T14:10:38.338Z,1.77
2018-09-25T14:13:13.322Z,1.47
2018-09-25T14:15:48.308Z,1.40
2018-09-25T14:18:23.304Z,1.47
2018-09-25T14:20:58.224Z,1.82
2018-09-25T14:23:33.302Z,1.82
2018-09-25T14:26:07.848Z,1.70
2018-09-25T14:28:42.851Z,1.45
2018-09-25T14:31:18.043Z,1.30
2018-09-25T14:33:52.922Z,1.30
2018-09-25T14:36:28.291Z,1.60
2018-09-25T14:39:03.263Z,1.40
2018-09-25T14:41:38.282Z,1.32
2018-09-25T14:44:13.235Z,1.50
2018-09-25T14:46:48.245Z,1.45
2018-09-25T14:49:23.153Z,1.20
2018-09-25T14:51:57.986Z,1.40
2018-09-25T14:54:33.315Z,1.20
2018-09-25T14:57:08.371Z,1.20
2018-09-25T14:59:43.276Z,1.10
2018-09-25T15:02:18.215Z,2.77
2018-09-25T15:04:53.225Z,1.25
2018-09-25T15:07:28.342Z,1.42
2018-09-25T15:10:03.194Z,1.30
2018-09-25T15:12:38.214Z,1.22
2018-09-25T15:15:13.342Z,1.00
2018-09-25T15:17:48.349Z,1.67
2018-09-25T15:20:23.258Z,1.20
2018-09-25T15:22:58.293Z,1.00
2018-09-25T15:25:33.280Z,1.12
2018-09-25T15:28:08.163Z,1.07
2018-09-25T15:30:43.249Z,1.10
2018-09-25T15:33:18.322Z,2.52
2018-09-25T15:35:53.727Z,0.90
2018-09-25T15:38:28.739Z,1.10
2018-09-25T15:41:03.754Z,1.00
2018-09-25T15:43:38.922Z,1.10
2018-09-25T15:46:13.945Z,1.10
2018-09-25T15:48:48.875Z,1.47
2018-09-25T15:51:24.300Z,1.20
2018-09-25T15:53:58.668Z,1.23
2018-09-25T15:56:33.066Z,1.53
2018-09-25T15:59:07.537Z,1.10
2018-09-25T16:01:41.977Z,1.23
2018-09-25T16:04:16.642Z,1.50
2018-09-25T16:06:51.223Z,1.40
2018-09-25T16:09:25.847Z,1.30
2018-09-25T16:12:00.398Z,1.30
2018-09-25T16:14:34.774Z,1.43
2018-09-25T16:17:09.177Z,1.50
2018-09-25T16:19:43.694Z,1.30
2018-09-25T16:22:18.296Z,1.53
2018-09-25T16:24:52.804Z,1.60
2018-09-25T16:27:27.162Z,1.60
2018-09-25T16:30:01.500Z,1.90
2018-09-25T16:32:36.069Z,1.77
2018-09-25T16:35:10.770Z,1.20
2018-09-25T16:37:45.283Z,1.93
2018-09-25T16:40:19.750Z,4.43
2018-09-25T16:42:54.066Z,2.83
2018-09-25T16:45:28.491Z,3.20
2018-09-25T16:48:02.897Z,2.50
2018-09-25T16:50:37.202Z,3.67
2018-09-25T16:53:11.528Z,3.60
2018-09-25T16:55:45.862Z,3.33
2018-09-25T16:58:20.232Z,3.50
2018-09-25T17:00:54.523Z,8.30
2018-09-25T17:03:28.966Z,2.80
2018-09-25T17:06:03.492Z,2.40
2018-09-25T17:08:38.388Z,2.90
2018-09-25T17:11:12.915Z,1.80
2018-09-25T17:13:47.355Z,1.70
2018-09-25T17:16:21.869Z,1.70
2018-09-25T17:18:56.467Z,7.37
2018-09-25T17:21:30.781Z,3.30
2018-09-25T17:24:05.401Z,3.10
2018-09-25T17:26:40.093Z,2.70
2018-09-25T17:29:14.804Z,2.67
2018-09-25T17:31:49.589Z,2.27
2018-09-25T17:34:23.950Z,2.03
2018-09-25T17:36:58.257Z,2.07
2018-09-25T17:39:32.594Z,2.00
2018-09-25T17:42:07.124Z,2.70
2018-09-25T17:44:41.545Z,1.80
2018-09-25T17:47:16.261Z,1.50
2018-09-25T17:49:50.666Z,2.07
2018-09-25T17:52:25.137Z,2.57
2018-09-25T17:54:59.464Z,2.20
2018-09-25T17:57:33.829Z,2.23
2018-09-25T18:00:08.842Z,2.10
2018-09-25T18:02:43.255Z,2.30
2018-09-25T18:05:17.585Z,1.60
2018-09-25T18:07:52.326Z,1.93
2018-09-25T18:10:26.770Z,1.70
2018-09-25T18:13:01.120Z,2.87
2018-09-25T18:15:35.577Z,1.70
2018-09-25T18:18:10.187Z,1.90
2018-09-25T18:20:44.560Z,2.70
2018-09-25T18:23:19.055Z,2.00
2018-09-25T18:25:53.262Z,1.93
2018-09-25T18:28:27.779Z,2.13
2018-09-25T18:31:02.245Z,2.60
2018-09-25T18:33:36.696Z,2.33
2018-09-25T18:36:11.263Z,2.70
2018-09-25T18:38:45.605Z,3.23
2018-09-25T18:41:19.921Z,2.07
2018-09-25T18:43:54.428Z,2.83
2018-09-25T18:46:28.939Z,2.87
2018-09-25T18:49:03.353Z,2.80
2018-09-25T18:51:37.809Z,2.53
2018-09-25T18:54:12.231Z,2.53
2018-09-25T18:56:46.711Z,2.20
2018-09-25T18:59:21.273Z,2.33
2018-09-25T19:01:55.933Z,2.50
2018-09-25T19:04:30.664Z,3.70
2018-09-25T19:07:05.101Z,2.47
2018-09-25T19:09:39.402Z,2.30
2018-09-25T19:12:14.299Z,2.90
2018-09-25T19:14:48.743Z,4.03
2018-09-25T19:17:23.234Z,2.30
2018-09-25T19:19:57.531Z,2.30
2018-09-25T19:22:31.906Z,2.43
2018-09-25T19:25:06.309Z,2.63
2018-09-25T19:27:40.794Z,2.50
2018-09-25T19:30:15.454Z,3.17
2018-09-25T19:32:49.890Z,2.70
2018-09-25T19:35:24.263Z,3.50
2018-09-25T19:37:58.857Z,3.27
2018-09-25T19:40:33.345Z,2.90
2018-09-25T19:43:07.680Z,2.97
2018-09-25T19:45:41.871Z,2.70
2018-09-25T19:48:16.230Z,2.60
2018-09-25T19:50:50.821Z,1.97
2018-09-25T19:53:25.131Z,2.17
2018-09-25T19:55:59.517Z,2.00
2018-09-25T19:58:33.877Z,2.00
2018-09-25T20:01:08.433Z,2.47
2018-09-25T20:03:42.896Z,2.40
2018-09-25T20:06:17.510Z,2.13
2018-09-25T20:08:51.776Z,1.90
2018-09-25T20:11:26.268Z,1.70
2018-09-25T20:14:00.703Z,2.10
2018-09-25T20:16:35.175Z,1.77
2018-09-25T20:19:09.514Z,2.30
2018-09-25T20:21:43.972Z,2.30
2018-09-25T20:24:18.663Z,2.10
2018-09-25T20:26:53.200Z,2.17
2018-09-25T20:29:27.638Z,2.00
2018-09-25T20:32:09.434Z,2.87
2018-09-25T20:34:43.903Z,2.10
2018-09-25T20:37:18.244Z,2.70
2018-09-25T20:39:52.851Z,2.37
2018-09-25T20:42:27.232Z,2.63
2018-09-25T20:45:01.617Z,3.00
2018-09-25T20:47:36.070Z,2.27
2018-09-25T20:50:10.683Z,2.13
2018-09-25T20:52:45.053Z,3.00
2018-09-25T20:55:19.489Z,2.20
2018-09-25T20:57:54.115Z,2.57
2018-09-25T21:00:28.543Z,2.20
2018-09-25T21:03:02.844Z,2.00
2018-09-25T21:05:37.229Z,2.20
2018-09-25T21:08:11.903Z,2.00
2018-09-25T21:10:46.273Z,2.20
2018-09-25T21:13:20.739Z,2.63
2018-09-25T21:15:55.225Z,2.27
2018-09-25T21:18:29.620Z,2.43
2018-09-25T21:21:04.157Z,2.97
2018-09-25T21:23:38.581Z,2.10
2018-09-25T21:26:13.140Z,2.40
2018-09-25T21:28:47.690Z,2.50
2018-09-25T21:31:21.928Z,2.67
2018-09-25T21:33:56.419Z,4.93
2018-09-25T21:36:30.639Z,2.90
2018-09-25T21:39:05.275Z,2.33
2018-09-25T21:41:39.862Z,2.80
2018-09-25T21:44:14.383Z,2.53
2018-09-25T21:46:48.742Z,2.60
2018-09-25T21:49:23.008Z,2.53
2018-09-25T21:51:57.538Z,2.87
2018-09-25T21:54:32.033Z,2.67
2018-09-25T21:57:06.479Z,2.60
2018-09-25T21:59:40.903Z,3.10
2018-09-25T22:02:15.252Z,2.47
2018-09-25T22:04:49.716Z,2.30
2018-09-25T22:07:24.125Z,2.37
2018-09-25T22:09:58.856Z,2.80
2018-09-25T22:12:33.089Z,2.23
2018-09-25T22:15:07.312Z,2.70
2018-09-25T22:17:41.826Z,2.40
2018-09-25T22:20:16.183Z,2.60
2018-09-25T22:22:50.604Z,2.80
2018-09-25T22:25:24.911Z,2.70
2018-09-25T22:27:59.362Z,3.00
2018-09-25T22:30:33.561Z,2.77
2018-09-25T22:33:08.089Z,2.83
2018-09-25T22:35:42.479Z,2.93
2018-09-25T22:38:16.841Z,3.23
2018-09-25T22:40:51.208Z,3.30
2018-09-25T22:43:25.716Z,3.00
2018-09-25T22:46:00.075Z,3.20
2018-09-25T22:48:34.344Z,2.80
2018-09-25T22:51:08.755Z,2.57
2018-09-25T22:53:43.252Z,3.10
2018-09-25T22:56:17.652Z,3.17
2018-09-25T22:58:51.990Z,3.07
2018-09-25T23:01:26.366Z,2.90
2018-09-25T23:04:00.711Z,3.50
2018-09-25T23:06:35.263Z,3.23
2018-09-25T23:09:11.531Z,3.60
2018-09-25T23:11:45.837Z,3.57
2018-09-25T23:14:20.155Z,3.00
2018-09-25T23:16:54.593Z,3.93
2018-09-25T23:19:29.180Z,3.63
2018-09-25T23:22:03.653Z,2.83
2018-09-25T23:24:38.097Z,2.70
2018-09-25T23:27:12.476Z,3.20
2018-09-25T23:29:46.987Z,2.60
2018-09-25T23:32:21.376Z,2.70
2018-09-25T23:34:55.720Z,3.07
2018-09-25T23:37:30.094Z,2.03
2018-09-25T23:40:04.470Z,2.77
2018-09-25T23:42:56.728Z,2.67
2018-09-25T23:45:30.762Z,2.47
2018-09-25T23:48:05.056Z,2.50
2018-09-25T23:50:41.220Z,2.40
2018-09-25T23:53:15.371Z,2.23
2018-09-25T23:55:50.811Z,2.47
2018-09-25T23:58:26.523Z,2.47
